Time;durP1;ratioP1;P1;durP2;ratioP2;P2;SDS_P1;SDS_P2;PMS_P1;PMS_P2;Temp;Humidity;BMP_temperature;BMP_pressure;BME280_temperature;BME280_humidity;BME280_pressure;Samples;Min_cycle;Max_cycle;Signal;HPM_P1;HPM_P2
2024/03/30 00:01:21;;;;;;;2.75;1.63;;;;;;;9.86;95.65;151153.38;10440153;28;20505;-73
2024/03/30 00:06:22;;;;;;;3.85;2.10;;;;;;;9.79;96.69;151136.63;10438983;28;20125;-73
2024/03/30 00:11:23;;;;;;;2.10;1.40;;;;;;;9.77;97.22;151130.16;10407459;28;20056;-72
2024/03/30 00:16:23;;;;;;;3.30;1.65;;;;;;;9.76;97.80;151127.59;10439821;28;20452;-73
2024/03/30 00:21:24;;;;;;;2.25;1.63;;;;;;;9.74;97.72;151122.41;10440028;28;20477;-74
2024/03/30 00:26:25;;;;;;;3.80;1.80;;;;;;;9.56;98.94;151077.25;10439887;28;20083;-74
2024/03/30 00:31:27;;;;;;;2.17;1.58;;;;;;;9.37;99.42;151029.53;10440230;28;20407;-74
2024/03/30 00:36:28;;;;;;;3.17;1.63;;;;;;;9.57;100.00;151081.13;10439853;28;20381;-73
2024/03/30 00:41:29;;;;;;;2.03;1.58;;;;;;;9.60;100.00;151087.56;10422632;28;20045;-72
2024/03/30 00:46:30;;;;;;;3.85;1.80;;;;;;;9.37;100.00;151029.53;10439472;28;20116;-73
2024/03/30 00:51:31;;;;;;;2.72;1.52;;;;;;;9.48;100.00;151057.94;10439952;28;20037;-73
2024/03/30 00:56:32;;;;;;;3.08;1.65;;;;;;;9.45;100.00;151050.16;10439137;28;20041;-73
2024/03/30 01:01:33;;;;;;;4.65;1.80;;;;;;;9.28;100.00;151006.31;10439365;28;20564;-73
2024/03/30 01:06:34;;;;;;;3.72;2.15;;;;;;;9.13;100.00;150967.63;10439436;28;20037;-73
2024/03/30 01:11:36;;;;;;;4.00;1.90;;;;;;;9.10;100.00;150961.16;10422177;28;20501;-73
2024/03/30 01:16:37;;;;;;;2.78;1.48;;;;;;;8.98;100.00;150931.47;10409312;28;20095;-73
2024/03/30 01:21:38;;;;;;;2.33;1.48;;;;;;;8.96;100.00;150925.06;10446631;28;20033;-73
2024/03/30 01:26:48;;;;;;;1.88;1.30;;;;;;;8.97;100.00;150927.63;10446783;28;20037;-73
2024/03/30 01:31:50;;;;;;;2.22;1.30;;;;;;;9.04;100.00;150945.72;10447216;28;20128;-73
2024/03/30 01:36:50;;;;;;;2.50;1.52;;;;;;;9.01;100.00;150939.25;10446171;28;20037;-73
2024/03/30 01:41:51;;;;;;;3.17;1.60;;;;;;;9.08;100.00;150956.03;10446612;28;20588;-74
2024/03/30 01:46:53;;;;;;;3.33;1.85;;;;;;;9.15;100.00;150972.78;10446145;28;20037;-73
2024/03/30 01:51:54;;;;;;;3.95;1.45;;;;;;;9.10;100.00;150961.16;10445939;28;20040;-73
2024/03/30 01:56:55;;;;;;;3.22;1.73;;;;;;;9.15;100.00;150974.06;10445784;28;20512;-73
2024/03/30 02:01:58;;;;;;;2.45;1.60;;;;;;;9.16;100.00;150976.63;10445640;28;20147;-73
2024/03/30 02:07:01;;;;;;;2.30;1.45;;;;;;;9.16;100.00;150976.63;10445819;28;20501;-73
2024/03/30 02:12:02;;;;;;;2.50;1.42;;;;;;;9.13;100.00;150968.91;10445041;28;20044;-73
2024/03/30 02:17:03;;;;;;;1.75;1.58;;;;;;;9.17;100.00;150977.94;10444711;28;20076;-73
2024/03/30 02:22:04;;;;;;;3.63;2.35;;;;;;;9.33;100.00;151019.19;10444856;28;20123;-73
2024/03/30 02:27:04;;;;;;;2.92;1.63;;;;;;;9.46;100.00;151052.75;10443382;28;20041;-73
2024/03/30 02:32:06;;;;;;;2.85;1.90;;;;;;;9.49;100.00;151060.50;10443779;28;20098;-73
2024/03/30 02:37:08;;;;;;;2.65;1.70;;;;;;;9.49;100.00;151060.50;10427478;28;20079;-73
2024/03/30 02:42:09;;;;;;;1.80;1.35;;;;;;;9.57;100.00;151081.13;10443600;28;20063;-73
2024/03/30 02:47:09;;;;;;;2.92;1.40;;;;;;;9.60;100.00;151088.84;10443576;28;20041;-73
2024/03/30 02:52:10;;;;;;;1.95;1.30;;;;;;;9.76;100.00;151127.59;10442935;28;20045;-73
2024/03/30 02:57:11;;;;;;;3.63;1.60;;;;;;;9.81;100.00;151140.47;10426758;28;20098;-73
2024/03/30 03:02:12;;;;;;;3.80;1.98;;;;;;;9.86;100.00;151154.66;10442596;28;20060;-72
2024/03/30 03:07:14;;;;;;;1.70;1.30;;;;;;;9.72;100.00;151118.53;10442294;28;20041;-72
2024/03/30 03:12:15;;;;;;;2.05;1.30;;;;;;;9.79;100.00;151135.34;10443386;28;20053;-72
2024/03/30 03:17:16;;;;;;;5.35;1.40;;;;;;;9.83;100.00;151145.66;10442693;28;20037;-74
2024/03/30 03:22:17;;;;;;;6.82;1.60;;;;;;;9.88;100.00;151157.28;10442164;28;20037;-72
2024/03/30 03:27:18;;;;;;;3.28;1.42;;;;;;;10.01;100.00;151192.13;10442600;28;20110;-73
2024/03/30 03:32:18;;;;;;;1.50;1.20;;;;;;;9.94;100.00;151172.75;10425028;28;20045;-73
2024/03/30 03:37:20;;;;;;;2.38;1.02;;;;;;;9.98;100.00;151183.06;10441254;28;20040;-73
2024/03/30 03:42:20;;;;;;;3.28;1.20;;;;;;;10.06;100.00;151205.03;10440865;28;20045;-73
2024/03/30 03:47:21;;;;;;;1.80;1.35;;;;;;;10.05;100.00;151202.44;10441426;28;20493;-73
2024/03/30 03:52:22;;;;;;;2.13;1.10;;;;;;;10.05;100.00;151202.44;10440771;28;20037;-73
2024/03/30 03:57:23;;;;;;;2.25;1.42;;;;;;;10.11;100.00;151216.63;10440316;28;20639;-73
2024/03/30 04:02:23;;;;;;;1.92;1.00;;;;;;;10.20;100.00;151239.88;10440382;28;20128;-73
2024/03/30 04:07:24;;;;;;;3.22;1.20;;;;;;;10.41;100.00;151291.56;10440158;28;20037;-72
2024/03/30 04:12:25;;;;;;;2.03;0.95;;;;;;;10.57;100.00;151334.13;10423778;28;20053;-72
2024/03/30 04:17:26;;;;;;;1.73;1.08;;;;;;;10.49;100.00;151312.19;10441110;28;20048;-73
2024/03/30 04:22:27;;;;;;;3.95;1.25;;;;;;;10.48;100.00;151310.91;10423611;28;20037;-72
2024/03/30 04:27:28;;;;;;;5.50;1.48;;;;;;;10.67;100.00;151357.38;10439313;28;20044;-72
2024/03/30 04:32:28;;;;;;;2.05;1.20;;;;;;;10.81;100.00;151393.56;10440233;28;20119;-74
2024/03/30 04:37:29;;;;;;;1.63;1.10;;;;;;;10.79;100.00;151389.66;10439452;28;20504;-74
2024/03/30 04:42:30;;;;;;;6.38;1.77;;;;;;;10.74;100.00;151375.47;10439201;28;20044;-73
2024/03/30 04:47:31;;;;;;;3.40;1.20;;;;;;;10.74;99.85;151375.47;10439031;28;20033;-72
2024/03/30 04:52:32;;;;;;;4.25;1.58;;;;;;;10.95;98.29;151428.44;10448382;28;20044;-74
2024/03/30 04:57:32;;;;;;;4.30;1.42;;;;;;;10.99;98.04;151440.06;10452701;28;20136;-73
2024/03/30 05:02:33;;;;;;;3.55;1.42;;;;;;;11.06;97.40;151458.09;10453473;28;20053;-73
2024/03/30 05:07:34;;;;;;;5.70;1.75;;;;;;;11.12;97.21;151472.34;10452925;28;20041;-73
2024/03/30 05:12:35;;;;;;;9.52;1.55;;;;;;;11.27;96.56;151509.81;10452974;28;20052;-73
2024/03/30 05:17:36;;;;;;;3.47;1.30;;;;;;;11.50;95.17;151567.94;10453054;28;20083;-73
2024/03/30 05:22:36;;;;;;;4.03;1.30;;;;;;;11.41;95.62;151544.69;10435702;28;20132;-73
2024/03/30 05:27:37;;;;;;;3.60;1.40;;;;;;;11.42;95.25;151548.59;10451812;28;20033;-73
2024/03/30 05:32:38;;;;;;;4.40;1.17;;;;;;;11.58;93.73;151589.91;10452962;28;20072;-73
2024/03/30 05:37:39;;;;;;;3.95;1.23;;;;;;;11.75;92.29;151631.25;10452140;28;20076;-73
2024/03/30 05:42:40;;;;;;;3.50;1.52;;;;;;;11.68;92.89;151614.44;10452854;28;20064;-73
2024/03/30 05:47:40;;;;;;;1.73;0.80;;;;;;;11.64;93.17;151604.09;10452244;28;20044;-73
2024/03/30 05:52:41;;;;;;;4.43;1.45;;;;;;;11.54;94.25;151579.56;10436368;28;20072;-73
2024/03/30 05:57:42;;;;;;;4.22;1.52;;;;;;;11.77;92.30;151636.41;10452514;28;20485;-72
2024/03/30 06:02:44;;;;;;;5.68;1.27;;;;;;;11.77;92.00;151637.69;10448655;28;20436;-73
2024/03/30 06:07:45;;;;;;;3.42;1.48;;;;;;;11.95;90.86;151681.69;10445241;28;20505;-73
2024/03/30 06:12:46;;;;;;;6.82;0.98;;;;;;;11.88;91.67;151664.91;10445518;28;20049;-74
2024/03/30 06:17:47;;;;;;;3.28;1.23;;;;;;;12.16;89.50;151734.69;10427985;28;20037;-73
2024/03/30 06:22:48;;;;;;;3.00;1.00;;;;;;;12.17;89.38;151737.28;10444356;28;20055;-72
2024/03/30 06:27:48;;;;;;;4.72;1.17;;;;;;;12.40;87.79;151795.50;10444244;28;20378;-73
2024/03/30 06:32:49;;;;;;;6.13;1.38;;;;;;;12.52;86.03;151827.78;10411475;28;20057;-74
2024/03/30 06:37:50;;;;;;;2.65;1.50;;;;;;;12.37;87.93;151789.00;10443836;28;20029;-72
2024/03/30 06:48:10;;;;;;;8.25;1.77;;;;;;;12.83;84.78;151906.66;10427199;28;20049;-73
2024/03/30 06:53:11;;;;;;;12.10;2.08;;;;;;;13.09;83.75;151972.63;10443615;28;20059;-73
2024/03/30 06:58:12;;;;;;;3.75;1.40;;;;;;;13.32;81.29;152029.59;10443466;28;20500;-73
2024/03/30 07:03:13;;;;;;;4.18;1.45;;;;;;;13.20;82.14;151999.81;10442519;28;20480;-73
2024/03/30 07:08:14;;;;;;;4.28;1.27;;;;;;;13.25;81.96;152011.50;10443519;28;20047;-72
2024/03/30 07:13:15;;;;;;;4.35;1.60;;;;;;;13.36;80.41;152041.25;10442264;28;20083;-72
2024/03/30 07:18:23;;;;;;;4.07;1.50;;;;;;;13.52;80.20;152081.38;10441942;28;20094;-73
2024/03/30 07:23:25;;;;;;;5.05;0.95;;;;;;;13.65;80.57;152113.72;10443202;28;20043;-72
2024/03/30 07:28:26;;;;;;;4.97;1.40;;;;;;;13.92;78.36;152181.03;10441863;28;20563;-73
2024/03/30 07:33:27;;;;;;;3.75;1.17;;;;;;;14.05;78.52;152215.97;10441783;28;20041;-73
2024/03/30 07:38:35;;;;;;;5.65;1.85;;;;;;;14.58;75.01;152350.69;10426308;28;20045;-72
2024/03/30 07:43:36;;;;;;;5.40;1.10;;;;;;;14.84;73.50;152416.75;10441138;28;20049;-73
2024/03/30 07:48:36;;;;;;;3.88;1.70;;;;;;;15.28;72.36;152528.16;10441162;28;20033;-73
2024/03/30 07:53:37;;;;;;;4.25;1.77;;;;;;;15.28;72.21;152526.84;10440459;28;20041;-74
2024/03/30 07:58:38;;;;;;;14.48;2.45;;;;;;;15.63;69.93;152617.56;10441119;28;20515;-73
2024/03/30 08:03:39;;;;;;;5.40;1.92;;;;;;;15.91;68.85;152686.28;10439704;28;20037;-72
2024/03/30 08:08:40;;;;;;;5.10;1.60;;;;;;;16.13;67.94;152743.31;10440626;28;20083;-73
2024/03/30 08:13:41;;;;;;;4.25;1.25;;;;;;;16.52;65.74;152841.88;10440190;28;20041;-72
2024/03/30 08:18:41;;;;;;;10.90;2.15;;;;;;;16.38;65.94;152808.16;10426375;28;20072;-73
2024/03/30 08:23:42;;;;;;;7.03;1.38;;;;;;;17.06;63.09;152979.41;10426101;28;20056;-75
2024/03/30 08:28:46;;;;;;;6.72;2.10;;;;;;;17.34;61.30;153052.03;10426719;28;20037;-76
2024/03/30 08:33:50;;;;;;;11.70;1.77;;;;;;;17.63;61.03;153124.72;10424834;28;20110;-73
2024/03/30 08:38:50;;;;;;;11.45;1.50;;;;;;;17.98;58.64;153213.03;10439295;28;20095;-73
2024/03/30 08:43:51;;;;;;;10.35;3.00;;;;;;;18.23;57.50;153277.91;10438863;28;20049;-73
2024/03/30 08:49:04;;;;;;;6.82;1.60;;;;;;;18.18;58.38;153263.66;10439318;28;20041;-73
2024/03/30 08:54:05;;;;;;;8.93;2.10;;;;;;;18.40;56.42;153322.06;10438939;28;20037;-72
2024/03/30 08:59:06;;;;;;;5.47;1.88;;;;;;;18.49;56.02;153344.16;10438458;28;20048;-71
2024/03/30 09:04:07;;;;;;;7.47;1.88;;;;;;;18.84;56.32;153432.50;10438424;28;20056;-73
2024/03/30 09:09:08;;;;;;;8.20;2.13;;;;;;;18.95;53.65;153459.78;10438660;28;20043;-73
2024/03/30 09:14:09;;;;;;;14.48;2.55;;;;;;;19.36;53.04;153566.31;10438512;28;20069;-73
2024/03/30 09:19:10;;;;;;;10.70;2.13;;;;;;;19.42;52.74;153580.59;10422246;28;20115;-74
2024/03/30 09:24:10;;;;;;;13.30;2.90;;;;;;;19.56;51.64;153616.97;10438426;28;20072;-72
2024/03/30 09:29:11;;;;;;;7.35;2.42;;;;;;;19.86;49.76;153693.72;10422046;28;20129;-73
2024/03/30 09:34:12;;;;;;;9.50;2.22;;;;;;;19.80;50.17;153678.13;10437762;28;20413;-72
2024/03/30 09:39:13;;;;;;;15.73;3.25;;;;;;;20.07;49.04;153745.72;10443457;28;20456;-72
2024/03/30 09:44:14;;;;;;;17.50;4.20;;;;;;;20.60;48.97;153880.97;10445369;28;20134;-72
2024/03/30 09:49:15;;;;;;;22.77;4.63;;;;;;;20.71;41.58;153908.28;10445740;28;20033;-72
2024/03/30 09:54:16;;;;;;;23.23;4.63;;;;;;;20.98;39.98;153977.19;10445987;28;20041;-71
2024/03/30 09:59:18;;;;;;;21.67;4.38;;;;;;;21.62;38.94;154141.19;10445090;28;20041;-72
2024/03/30 10:04:18;;;;;;;32.70;6.55;;;;;;;21.69;38.09;154158.06;10444813;28;20048;-72
2024/03/30 10:09:20;;;;;;;16.80;4.22;;;;;;;21.58;38.54;154132.06;10427969;28;20044;-73
2024/03/30 10:14:29;;;;;;;39.53;7.30;;;;;;;21.88;37.44;154208.84;10444379;28;20049;-72
2024/03/30 10:19:32;;;;;;;26.77;6.18;;;;;;;21.83;38.90;154194.56;10443988;28;20044;-73
2024/03/30 10:24:33;;;;;;;27.50;4.88;;;;;;;22.27;38.59;154306.50;10443921;28;20037;-73
2024/03/30 10:29:35;;;;;;;34.15;5.70;;;;;;;22.73;36.63;154423.69;10443482;28;20382;-71
2024/03/30 10:34:36;;;;;;;22.20;5.53;;;;;;;22.39;37.05;154337.75;10443106;28;20052;-72
2024/03/30 10:39:39;;;;;;;22.88;3.47;;;;;;;22.31;37.98;154316.91;10426584;28;20037;-72
2024/03/30 10:44:40;;;;;;;25.05;3.65;;;;;;;21.96;38.52;154228.38;10442762;28;20066;-71
2024/03/30 10:49:41;;;;;;;16.45;4.03;;;;;;;22.02;39.21;154242.69;10441916;28;20094;-72
2024/03/30 10:54:43;;;;;;;19.75;4.70;;;;;;;22.12;39.64;154268.75;10443431;28;20095;-72
2024/03/30 10:59:46;;;;;;;28.70;4.38;;;;;;;22.02;38.74;154243.97;10425948;28;20048;-74
2024/03/30 11:04:49;;;;;;;18.55;5.30;;;;;;;22.43;39.08;154348.16;10442128;28;20040;-72
2024/03/30 11:09:51;;;;;;;30.73;4.78;;;;;;;22.36;37.87;154329.97;10441966;28;20036;-72
2024/03/30 11:14:51;;;;;;;30.42;4.55;;;;;;;22.15;38.72;154276.59;10442168;28;20045;-72
2024/03/30 11:20:12;;;;;;;39.53;5.03;;;;;;;22.16;37.98;154279.16;10441951;28;20060;-73
2024/03/30 11:25:13;;;;;;;27.95;5.60;;;;;;;22.07;37.39;154255.69;10441760;28;20095;-72
2024/03/30 11:30:43;;;;;;;26.40;4.85;;;;;;;22.09;39.22;154260.88;10441627;28;20059;-71
2024/03/30 11:35:47;;;;;;;34.67;5.70;;;;;;;22.29;37.61;154311.72;10440927;28;20373;-72
2024/03/30 11:41:01;;;;;;;23.27;4.47;;;;;;;22.43;40.04;154348.16;10442199;28;20412;-72
2024/03/30 11:46:04;;;;;;;22.15;4.85;;;;;;;22.71;37.66;154419.81;10440555;28;20037;-71
2024/03/30 11:51:17;;;;;;;30.15;4.97;;;;;;;22.10;37.72;154264.81;10423881;28;20049;-71
2024/03/30 11:56:18;;;;;;;40.35;7.03;;;;;;;22.67;36.59;154409.38;10440620;28;20043;-72
2024/03/30 12:01:20;;;;;;;23.05;5.22;;;;;;;22.61;37.19;154393.72;10441142;28;20128;-71
2024/03/30 12:06:21;;;;;;;39.97;6.00;;;;;;;22.81;36.69;154445.84;10442844;28;20408;-72
2024/03/30 12:11:22;;;;;;;31.10;4.88;;;;;;;22.59;37.10;154389.84;10440334;28;20053;-73
2024/03/30 12:16:23;;;;;;;28.90;5.30;;;;;;;22.84;37.05;154452.31;10423472;28;20500;-72
2024/03/30 12:21:24;;;;;;;21.67;5.03;;;;;;;22.70;37.83;154415.88;10440256;28;20493;-72
2024/03/30 12:26:25;;;;;;;32.67;5.65;;;;;;;22.47;36.05;154358.59;10439491;28;20551;-72
2024/03/30 12:31:31;;;;;;;26.10;5.20;;;;;;;22.71;36.84;154419.81;10439838;28;20044;-75
2024/03/30 12:36:31;;;;;;;27.63;4.85;;;;;;;23.12;35.33;154525.31;10439362;28;20037;-72
2024/03/30 12:41:32;;;;;;;35.72;5.47;;;;;;;23.01;35.11;154496.66;10438719;28;20514;-73
2024/03/30 12:46:34;;;;;;;22.65;5.47;;;;;;;23.08;34.63;154514.91;10422327;28;20044;-71
2024/03/30 12:51:36;;;;;;;24.15;5.88;;;;;;;22.55;34.17;154379.41;10439060;28;20045;-72
2024/03/30 12:56:37;;;;;;;29.35;4.40;;;;;;;22.01;36.17;154240.09;10438641;28;20033;-72
2024/03/30 13:01:38;;;;;;;37.25;5.75;;;;;;;22.11;35.97;154267.41;10423000;28;20063;-71
2024/03/30 13:06:43;;;;;;;18.50;4.03;;;;;;;22.31;37.07;154316.91;10438503;28;20095;-72
2024/03/30 13:11:45;;;;;;;16.90;4.57;;;;;;;22.36;38.56;154331.25;10440974;28;20032;-73
2024/03/30 13:16:46;;;;;;;28.63;4.95;;;;;;;22.46;36.95;154356.00;10446865;28;20047;-71
2024/03/30 13:21:47;;;;;;;31.88;5.07;;;;;;;22.50;36.18;154366.41;10447007;28;20049;-73
2024/03/30 13:26:48;;;;;;;33.47;5.13;;;;;;;22.44;36.27;154350.75;10446398;28;20093;-72
2024/03/30 13:31:49;;;;;;;21.85;4.75;;;;;;;22.51;37.39;154367.72;10446830;28;20069;-73
2024/03/30 13:36:49;;;;;;;30.13;4.93;;;;;;;22.35;36.59;154327.31;10446573;28;20029;-72
2024/03/30 13:41:50;;;;;;;24.42;5.15;;;;;;;22.37;36.56;154333.84;10445635;28;20037;-73
2024/03/30 13:46:51;;;;;;;25.85;4.07;;;;;;;22.37;36.45;154332.56;10445799;28;20091;-72
2024/03/30 13:51:52;;;;;;;25.35;4.80;;;;;;;22.41;35.75;154342.97;10445448;28;20037;-72
2024/03/30 13:56:57;;;;;;;17.70;4.55;;;;;;;22.49;36.22;154362.47;10444929;28;20048;-72
2024/03/30 14:01:58;;;;;;;33.22;4.10;;;;;;;22.60;36.03;154392.44;10445477;28;20040;-71
2024/03/30 14:06:59;;;;;;;26.58;4.35;;;;;;;22.46;36.33;154354.69;10444662;28;20045;-74
2024/03/30 14:12:00;;;;;;;21.50;5.05;;;;;;;22.49;35.57;154363.81;10444397;28;20394;-72
2024/03/30 14:17:04;;;;;;;37.35;4.93;;;;;;;22.38;35.78;154335.16;10444901;28;20090;-73
2024/03/30 14:22:04;;;;;;;20.02;4.50;;;;;;;22.38;35.79;154335.16;10426638;28;20052;-73
2024/03/30 14:27:05;;;;;;;25.60;3.90;;;;;;;22.29;35.88;154311.72;10426535;28;20413;-71
2024/03/30 14:32:06;;;;;;;25.73;4.70;;;;;;;22.22;37.10;154294.78;10444012;28;20555;-72
2024/03/30 14:37:08;;;;;;;25.25;5.68;;;;;;;22.39;37.09;154337.75;10443541;28;20056;-71
2024/03/30 14:42:09;;;;;;;17.92;4.72;;;;;;;22.15;36.79;154277.88;10443076;28;20416;-71
2024/03/30 14:47:10;;;;;;;29.55;4.57;;;;;;;22.22;37.47;154294.78;10443041;28;20044;-71
2024/03/30 14:52:10;;;;;;;24.77;4.13;;;;;;;21.91;38.04;154216.69;10442765;28;20052;-72
2024/03/30 14:57:11;;;;;;;29.35;5.25;;;;;;;21.74;37.39;154172.44;10426190;28;20600;-72
2024/03/30 15:02:12;;;;;;;26.25;4.53;;;;;;;21.90;37.43;154212.75;10442969;28;20041;-72
2024/03/30 15:07:14;;;;;;;24.77;5.22;;;;;;;21.85;36.97;154199.72;10425850;28;20423;-72
2024/03/30 15:12:16;;;;;;;25.05;5.63;;;;;;;21.86;35.96;154203.63;10440340;28;20040;-72
2024/03/30 15:17:17;;;;;;;24.67;3.72;;;;;;;21.96;36.18;154228.38;10442088;28;20045;-72
2024/03/30 15:22:18;;;;;;;29.80;4.93;;;;;;;21.83;35.28;154194.56;10442223;28;20090;-73
2024/03/30 15:27:18;;;;;;;24.75;4.13;;;;;;;21.96;35.79;154228.38;10441704;28;20061;-72
2024/03/30 15:32:30;;;;;;;30.45;4.68;;;;;;;21.76;36.51;154177.59;10439344;28;20048;-72
2024/03/30 15:37:31;;;;;;;23.98;3.50;;;;;;;21.72;36.18;154167.19;10440553;28;20037;-72
2024/03/30 15:42:32;;;;;;;22.85;4.57;;;;;;;21.60;35.79;154137.28;10440578;28;20179;-73
2024/03/30 15:47:32;;;;;;;22.73;4.05;;;;;;;21.42;36.64;154090.41;10440227;28;20075;-72
2024/03/30 15:52:34;;;;;;;26.80;4.45;;;;;;;21.22;37.46;154039.66;10440200;28;20509;-73
2024/03/30 15:57:35;;;;;;;16.38;2.88;;;;;;;20.84;38.59;153942.06;10440093;28;20412;-72
2024/03/30 16:02:37;;;;;;;20.58;3.85;;;;;;;20.83;39.10;153939.50;10440530;28;20055;-73
2024/03/30 16:07:37;;;;;;;26.30;3.58;;;;;;;20.54;40.22;153865.34;10440059;28;20087;-72
2024/03/30 16:12:38;;;;;;;14.57;3.72;;;;;;;20.43;40.66;153838.00;10440069;28;20095;-73
2024/03/30 16:17:39;;;;;;;19.48;3.40;;;;;;;20.10;41.65;153754.81;10439540;28;20041;-73
2024/03/30 16:22:40;;;;;;;23.05;3.50;;;;;;;20.14;41.64;153763.88;10439549;28;20045;-72
2024/03/30 16:27:41;;;;;;;21.25;4.15;;;;;;;20.03;42.24;153735.31;10439451;28;20037;-72
2024/03/30 16:32:42;;;;;;;26.80;3.42;;;;;;;19.75;43.22;153663.84;10438897;28;20049;-73
2024/03/30 16:37:43;;;;;;;17.77;2.90;;;;;;;19.46;44.12;153591.00;10460188;28;20178;-73
2024/03/30 16:42:44;;;;;;;20.83;4.20;;;;;;;19.41;44.29;153579.31;10480635;28;20040;-72
2024/03/30 16:47:49;;;;;;;19.85;4.25;;;;;;;19.27;44.85;153542.94;10479706;28;20044;-73
2024/03/30 16:52:53;;;;;;;13.90;3.23;;;;;;;19.07;45.48;153492.25;10480065;28;20119;-73
2024/03/30 16:57:53;;;;;;;20.38;4.13;;;;;;;18.98;46.39;153467.56;10480279;28;20036;-72
2024/03/30 17:02:55;;;;;;;16.20;4.18;;;;;;;18.82;46.84;153428.63;10480022;28;20060;-73
2024/03/30 17:07:56;;;;;;;13.70;4.07;;;;;;;18.63;47.83;153380.50;10479846;28;20368;-73
2024/03/30 17:12:56;;;;;;;18.48;3.55;;;;;;;18.46;48.41;153336.38;10479131;28;20055;-74
2024/03/30 17:17:57;;;;;;;22.70;6.30;;;;;;;18.19;49.83;153267.53;10479467;28;20032;-72
2024/03/30 17:22:58;;;;;;;33.65;6.65;;;;;;;17.98;50.52;153213.03;10478928;28;20510;-74
2024/03/30 17:27:59;;;;;;;23.58;5.68;;;;;;;17.76;52.92;153157.22;10462538;28;20045;-74
2024/03/30 17:33:00;;;;;;;17.42;4.68;;;;;;;17.63;52.18;153126.03;10479142;28;20040;-72
2024/03/30 17:38:01;;;;;;;32.45;6.95;;;;;;;17.63;52.14;153126.03;10478989;28;20033;-73
2024/03/30 17:43:02;;;;;;;21.45;6.30;;;;;;;17.58;52.57;153111.75;10479351;28;20128;-73
2024/03/30 17:48:03;;;;;;;14.18;4.43;;;;;;;17.27;53.72;153032.63;10462348;28;20043;-73
2024/03/30 17:53:03;;;;;;;16.23;4.45;;;;;;;17.22;55.72;153019.59;10461701;28;20037;-72
2024/03/30 17:58:04;;;;;;;15.65;4.18;;;;;;;16.80;55.99;152913.25;10480578;28;20123;-73
2024/03/30 18:03:05;;;;;;;15.95;5.50;;;;;;;16.75;55.96;152900.28;10486135;28;20036;-73
2024/03/30 18:08:06;;;;;;;15.95;5.13;;;;;;;16.73;57.11;152895.06;10486032;28;20504;-72
2024/03/30 18:13:09;;;;;;;16.77;6.05;;;;;;;16.53;56.89;152844.47;10486409;28;20044;-73
2024/03/30 18:18:10;;;;;;;22.00;5.72;;;;;;;16.72;59.00;152893.78;10485197;28;20037;-73
2024/03/30 18:23:12;;;;;;;14.93;5.05;;;;;;;16.58;58.93;152857.44;10485209;28;20448;-71
2024/03/30 18:28:13;;;;;;;23.73;6.15;;;;;;;16.38;58.60;152806.88;10484911;28;20033;-71
2024/03/30 18:33:14;;;;;;;22.88;8.82;;;;;;;16.36;59.39;152801.66;10465371;28;20481;-73
2024/03/30 18:38:15;;;;;;;21.25;6.63;;;;;;;16.32;59.75;152792.56;10443164;28;20044;-72
2024/03/30 18:43:16;;;;;;;18.90;6.10;;;;;;;16.16;60.59;152751.13;10443434;28;20505;-73
2024/03/30 18:48:17;;;;;;;27.25;5.20;;;;;;;16.15;59.97;152749.78;10443702;28;20504;-72
2024/03/30 18:53:17;;;;;;;21.10;7.28;;;;;;;16.04;60.78;152721.28;10443246;28;20118;-73
2024/03/30 18:58:18;;;;;;;16.55;4.75;;;;;;;16.00;61.29;152710.91;10443592;28;20484;-72
2024/03/30 19:03:19;;;;;;;20.48;5.82;;;;;;;16.13;60.15;152744.63;10425833;28;20147;-72
2024/03/30 19:08:20;;;;;;;27.15;6.65;;;;;;;15.99;62.15;152708.34;10441810;28;20037;-72
2024/03/30 19:13:21;;;;;;;20.30;4.85;;;;;;;15.84;63.59;152670.72;10441390;28;20219;-72
2024/03/30 19:18:22;;;;;;;15.10;5.88;;;;;;;15.56;62.28;152599.41;10442116;28;20064;-73
2024/03/30 19:23:23;;;;;;;14.88;5.97;;;;;;;15.43;62.47;152564.41;10425523;28;20045;-73
2024/03/30 19:28:24;;;;;;;32.53;7.40;;;;;;;15.41;61.98;152560.53;10441922;28;20045;-74
2024/03/30 19:33:25;;;;;;;20.13;5.82;;;;;;;15.36;61.74;152548.88;10441524;28;20095;-73
2024/03/30 19:38:26;;;;;;;20.30;5.13;;;;;;;15.34;61.74;152543.69;10441691;28;20033;-72
2024/03/30 19:43:26;;;;;;;16.77;5.55;;;;;;;15.29;61.17;152529.44;10441630;28;20127;-73
2024/03/30 19:48:27;;;;;;;11.75;5.55;;;;;;;15.27;60.86;152525.56;10441733;28;20037;-74
2024/03/30 19:53:29;;;;;;;17.70;5.18;;;;;;;15.28;60.81;152528.16;10441543;28;20043;-73
2024/03/30 19:58:29;;;;;;;20.27;5.50;;;;;;;15.28;62.00;152526.84;10440758;28;20041;-73
2024/03/30 20:03:30;;;;;;;13.57;5.20;;;;;;;15.13;61.45;152490.53;10409132;28;20435;-72
2024/03/30 20:08:33;;;;;;;14.55;5.50;;;;;;;15.26;61.01;152522.94;10440244;28;20155;-73
2024/03/30 20:13:33;;;;;;;18.98;5.63;;;;;;;15.17;60.40;152499.63;10440471;28;20417;-73
2024/03/30 20:18:36;;;;;;;14.20;6.03;;;;;;;15.19;59.31;152504.84;10440394;28;20073;-74
2024/03/30 20:23:37;;;;;;;15.30;5.55;;;;;;;15.23;58.60;152513.84;10443207;28;20128;-76
2024/03/30 20:28:38;;;;;;;23.77;5.40;;;;;;;15.35;58.02;152546.25;10443048;28;20037;-73
2024/03/30 20:33:39;;;;;;;16.77;5.40;;;;;;;15.49;56.92;152581.25;10443770;28;20416;-74
2024/03/30 20:38:39;;;;;;;19.65;5.00;;;;;;;15.88;55.55;152681.09;10443094;28;20489;-75
2024/03/30 20:43:41;;;;;;;23.23;6.35;;;;;;;15.63;56.53;152617.56;10442761;28;20489;-74
2024/03/30 20:48:42;;;;;;;11.55;5.07;;;;;;;15.42;57.03;152561.84;10442333;28;20037;-77
2024/03/30 20:53:43;;;;;;;24.85;6.90;;;;;;;15.42;57.16;152563.13;10442851;28;20049;-75
2024/03/30 20:58:44;;;;;;;14.60;4.57;;;;;;;15.30;57.14;152532.03;10442642;28;20037;-75
2024/03/30 21:03:45;;;;;;;11.77;3.65;;;;;;;15.36;57.58;152547.53;10442944;28;20079;-75
2024/03/30 21:08:46;;;;;;;9.93;3.83;;;;;;;15.14;58.20;152491.88;10427014;28;20406;-74
2024/03/30 21:13:46;;;;;;;24.98;5.22;;;;;;;15.06;58.49;152471.16;10443262;28;20044;-75
2024/03/30 21:18:48;;;;;;;20.98;5.50;;;;;;;15.00;58.55;152456.88;10443962;28;20045;-75
2024/03/30 21:23:50;;;;;;;28.67;4.57;;;;;;;15.33;57.12;152541.09;10443385;28;20051;-74
2024/03/30 21:28:59;;;;;;;16.50;5.13;;;;;;;15.28;57.39;152528.16;10443059;28;20037;-75
2024/03/30 21:34:01;;;;;;;18.42;5.88;;;;;;;15.13;57.83;152489.25;10446879;28;20045;-75
2024/03/30 21:39:02;;;;;;;12.52;4.75;;;;;;;15.09;57.89;152478.88;10434198;28;20045;-74
2024/03/30 21:44:02;;;;;;;23.23;4.32;;;;;;;14.88;58.73;152427.09;10450449;28;20096;-74
2024/03/30 21:49:03;;;;;;;13.82;3.95;;;;;;;15.19;57.62;152504.84;10450091;28;20045;-75
2024/03/30 21:54:04;;;;;;;11.45;3.03;;;;;;;15.34;56.83;152542.38;10450711;28;20041;-74
2024/03/30 21:59:06;;;;;;;12.80;5.00;;;;;;;15.19;57.36;152503.53;10450379;28;20120;-74
2024/03/30 22:04:07;;;;;;;16.70;4.00;;;;;;;15.11;57.53;152484.09;10450708;28;20148;-75
2024/03/30 22:09:08;;;;;;;17.27;4.55;;;;;;;14.85;58.57;152419.31;10449808;28;20397;-75
2024/03/30 22:14:09;;;;;;;13.52;4.35;;;;;;;14.80;59.00;152405.06;10448520;28;20055;-74
2024/03/30 22:19:10;;;;;;;20.15;3.90;;;;;;;14.86;59.00;152420.59;10447727;28;20484;-74
2024/03/30 22:24:12;;;;;;;13.15;3.40;;;;;;;15.11;58.06;152484.09;10448295;28;20040;-76
2024/03/30 22:29:13;;;;;;;18.88;5.07;;;;;;;15.26;58.48;152521.66;10447967;28;20117;-74
2024/03/30 22:34:14;;;;;;;13.30;3.95;;;;;;;15.23;57.84;152513.84;10448966;28;20045;-75
2024/03/30 22:39:14;;;;;;;28.15;4.28;;;;;;;15.07;58.74;152475.03;10447106;28;20512;-75
2024/03/30 22:44:15;;;;;;;21.50;5.07;;;;;;;14.92;59.52;152436.19;10430036;28;20116;-74
2024/03/30 22:49:16;;;;;;;18.73;3.60;;;;;;;14.84;60.54;152415.44;10446784;28;20114;-74
2024/03/30 22:54:17;;;;;;;11.48;3.05;;;;;;;14.78;61.06;152399.88;10445698;28;20037;-76
2024/03/30 22:59:18;;;;;;;13.68;3.75;;;;;;;14.58;61.70;152349.38;10446159;28;20058;-75